sensor_id;sensor_type;location;lat;lon;timestamp;temperature;humidity
11961;DHT22;6040;49.358;11.140;2022-12-29T00:02:18;6.30;99.90
11961;DHT22;6040;49.358;11.140;2022-12-29T00:04:45;6.40;99.90
11961;DHT22;6040;49.358;11.140;2022-12-29T00:07:13;6.40;99.90
11961;DHT22;6040;49.358;11.140;2022-12-29T00:09:40;6.40;99.90
11961;DHT22;6040;49.358;11.140;2022-12-29T00:12:07;6.50;99.90
11961;DHT22;6040;49.358;11.140;2022-12-29T00:14:33;6.50;99.90
11961;DHT22;6040;49.358;11.140;2022-12-29T00:17:18;6.50;99.90
11961;DHT22;6040;49.358;11.140;2022-12-29T00:19:44;6.50;99.90
11961;DHT22;6040;49.358;11.140;2022-12-29T00:22:30;6.60;99.90
11961;DHT22;6040;49.358;11.140;2022-12-29T00:25:15;6.60;99.90
11961;DHT22;6040;49.358;11.140;2022-12-29T00:27:59;6.60;99.90
11961;DHT22;6040;49.358;11.140;2022-12-29T00:30:43;7.40;99.90
11961;DHT22;6040;49.358;11.140;2022-12-29T00:33:30;7.20;99.90
11961;DHT22;6040;49.358;11.140;2022-12-29T00:36:17;6.70;99.90
11961;DHT22;6040;49.358;11.140;2022-12-29T00:38:48;6.80;99.90
11961;DHT22;6040;49.358;11.140;2022-12-29T00:41:34;6.90;99.90
11961;DHT22;6040;49.358;11.140;2022-12-29T00:44:18;6.90;99.90
11961;DHT22;6040;49.358;11.140;2022-12-29T00:46:45;6.80;99.90
11961;DHT22;6040;49.358;11.140;2022-12-29T00:49:13;6.80;99.90
11961;DHT22;6040;49.358;11.140;2022-12-29T00:52:00;6.80;99.90
11961;DHT22;6040;49.358;11.140;2022-12-29T00:54:31;6.80;99.90
11961;DHT22;6040;49.358;11.140;2022-12-29T00:56:58;7.30;99.90
11961;DHT22;6040;49.358;11.140;2022-12-29T00:59:25;6.90;99.90
11961;DHT22;6040;49.358;11.140;2022-12-29T01:01:53;7.00;99.90
11961;DHT22;6040;49.358;11.140;2022-12-29T01:04:21;6.90;99.90
11961;DHT22;6040;49.358;11.140;2022-12-29T01:06:49;6.90;99.90
11961;DHT22;6040;49.358;11.140;2022-12-29T01:09:17;6.90;99.90
11961;DHT22;6040;49.358;11.140;2022-12-29T01:12:03;6.90;99.90
11961;DHT22;6040;49.358;11.140;2022-12-29T01:14:31;6.90;99.90
11961;DHT22;6040;49.358;11.140;2022-12-29T01:16:58;7.00;99.90
11961;DHT22;6040;49.358;11.140;2022-12-29T01:19:25;7.00;99.90
11961;DHT22;6040;49.358;11.140;2022-12-29T01:21:52;7.10;99.90
11961;DHT22;6040;49.358;11.140;2022-12-29T01:24:20;7.10;99.90
11961;DHT22;6040;49.358;11.140;2022-12-29T01:26:47;7.00;99.90
11961;DHT22;6040;49.358;11.140;2022-12-29T01:29:15;7.10;99.90
11961;DHT22;6040;49.358;11.140;2022-12-29T01:31:42;7.20;99.90
11961;DHT22;6040;49.358;11.140;2022-12-29T01:34:09;7.10;99.90
11961;DHT22;6040;49.358;11.140;2022-12-29T01:36:36;7.20;99.90
11961;DHT22;6040;49.358;11.140;2022-12-29T01:39:03;6.90;99.90
11961;DHT22;6040;49.358;11.140;2022-12-29T01:41:30;7.30;99.90
11961;DHT22;6040;49.358;11.140;2022-12-29T01:43:58;7.20;99.90
11961;DHT22;6040;49.358;11.140;2022-12-29T01:46:30;7.20;99.90
11961;DHT22;6040;49.358;11.140;2022-12-29T01:49:04;7.30;99.90
11961;DHT22;6040;49.358;11.140;2022-12-29T01:51:34;7.20;99.90
11961;DHT22;6040;49.358;11.140;2022-12-29T01:54:05;7.30;99.90
11961;DHT22;6040;49.358;11.140;2022-12-29T01:56:34;7.40;99.90
11961;DHT22;6040;49.358;11.140;2022-12-29T01:59:04;7.40;99.90
11961;DHT22;6040;49.358;11.140;2022-12-29T02:01:34;8.40;99.90
11961;DHT22;6040;49.358;11.140;2022-12-29T02:04:01;7.30;99.90
11961;DHT22;6040;49.358;11.140;2022-12-29T02:06:31;7.30;99.90
11961;DHT22;6040;49.358;11.140;2022-12-29T02:09:00;7.40;99.90
11961;DHT22;6040;49.358;11.140;2022-12-29T02:11:28;7.40;99.90
11961;DHT22;6040;49.358;11.140;2022-12-29T02:13:55;8.50;99.90
11961;DHT22;6040;49.358;11.140;2022-12-29T02:16:38;7.20;99.90
11961;DHT22;6040;49.358;11.140;2022-12-29T02:22:18;7.30;99.90
11961;DHT22;6040;49.358;11.140;2022-12-29T02:27:46;7.10;99.90
11961;DHT22;6040;49.358;11.140;2022-12-29T02:30:38;8.50;99.90
11961;DHT22;6040;49.358;11.140;2022-12-29T02:33:13;7.50;99.90
11961;DHT22;6040;49.358;11.140;2022-12-29T02:35:45;7.30;99.90
11961;DHT22;6040;49.358;11.140;2022-12-29T02:38:20;7.30;99.90
11961;DHT22;6040;49.358;11.140;2022-12-29T02:40:54;7.50;99.90
11961;DHT22;6040;49.358;11.140;2022-12-29T02:43:26;7.40;99.90
11961;DHT22;6040;49.358;11.140;2022-12-29T02:46:02;7.20;99.90
11961;DHT22;6040;49.358;11.140;2022-12-29T02:48:32;7.50;99.90
11961;DHT22;6040;49.358;11.140;2022-12-29T02:51:01;7.60;99.90
11961;DHT22;6040;49.358;11.140;2022-12-29T02:53:30;7.60;99.90
11961;DHT22;6040;49.358;11.140;2022-12-29T02:56:15;8.70;99.90
11961;DHT22;6040;49.358;11.140;2022-12-29T02:58:42;7.50;99.90
11961;DHT22;6040;49.358;11.140;2022-12-29T03:01:23;7.70;99.90
11961;DHT22;6040;49.358;11.140;2022-12-29T03:04:12;7.40;99.90
11961;DHT22;6040;49.358;11.140;2022-12-29T03:06:48;7.60;99.90
11961;DHT22;6040;49.358;11.140;2022-12-29T03:09:26;7.70;99.90
11961;DHT22;6040;49.358;11.140;2022-12-29T03:11:59;7.70;99.90
11961;DHT22;6040;49.358;11.140;2022-12-29T03:14:44;8.40;99.90
11961;DHT22;6040;49.358;11.140;2022-12-29T03:17:38;7.70;99.90
11961;DHT22;6040;49.358;11.140;2022-12-29T03:20:08;7.40;99.90
11961;DHT22;6040;49.358;11.140;2022-12-29T03:22:41;7.70;99.90
11961;DHT22;6040;49.358;11.140;2022-12-29T03:25:15;7.70;99.90
11961;DHT22;6040;49.358;11.140;2022-12-29T03:27:47;7.80;99.90
11961;DHT22;6040;49.358;11.140;2022-12-29T03:30:15;7.50;99.90
11961;DHT22;6040;49.358;11.140;2022-12-29T03:32:46;7.60;99.90
11961;DHT22;6040;49.358;11.140;2022-12-29T03:35:15;7.70;99.90
11961;DHT22;6040;49.358;11.140;2022-12-29T03:37:45;8.00;99.90
11961;DHT22;6040;49.358;11.140;2022-12-29T03:40:16;7.50;99.90
11961;DHT22;6040;49.358;11.140;2022-12-29T03:42:43;7.60;99.90
11961;DHT22;6040;49.358;11.140;2022-12-29T03:45:11;7.70;99.90
11961;DHT22;6040;49.358;11.140;2022-12-29T03:47:37;7.70;99.90
11961;DHT22;6040;49.358;11.140;2022-12-29T03:50:06;7.80;99.90
11961;DHT22;6040;49.358;11.140;2022-12-29T03:52:34;7.80;99.90
11961;DHT22;6040;49.358;11.140;2022-12-29T03:55:01;9.00;99.90
11961;DHT22;6040;49.358;11.140;2022-12-29T03:57:27;8.10;99.90
11961;DHT22;6040;49.358;11.140;2022-12-29T03:59:54;8.70;99.90
11961;DHT22;6040;49.358;11.140;2022-12-29T04:02:21;7.60;99.90
11961;DHT22;6040;49.358;11.140;2022-12-29T04:04:49;7.40;99.90
11961;DHT22;6040;49.358;11.140;2022-12-29T04:07:17;8.00;99.90
11961;DHT22;6040;49.358;11.140;2022-12-29T04:09:44;7.50;99.90
11961;DHT22;6040;49.358;11.140;2022-12-29T04:14:39;7.60;99.90
11961;DHT22;6040;49.358;11.140;2022-12-29T04:17:05;7.70;99.90
11961;DHT22;6040;49.358;11.140;2022-12-29T04:19:32;7.60;99.90
11961;DHT22;6040;49.358;11.140;2022-12-29T04:21:59;7.70;99.90
11961;DHT22;6040;49.358;11.140;2022-12-29T04:24:27;7.70;99.90
11961;DHT22;6040;49.358;11.140;2022-12-29T04:26:54;8.00;99.90
11961;DHT22;6040;49.358;11.140;2022-12-29T04:29:21;8.20;99.90
11961;DHT22;6040;49.358;11.140;2022-12-29T04:31:48;7.70;99.90
11961;DHT22;6040;49.358;11.140;2022-12-29T04:34:15;7.70;99.90
11961;DHT22;6040;49.358;11.140;2022-12-29T04:36:42;7.70;99.90
11961;DHT22;6040;49.358;11.140;2022-12-29T04:39:09;7.70;99.90
11961;DHT22;6040;49.358;11.140;2022-12-29T04:41:37;7.80;99.90
11961;DHT22;6040;49.358;11.140;2022-12-29T04:44:04;7.80;99.90
11961;DHT22;6040;49.358;11.140;2022-12-29T04:46:31;7.70;99.90
11961;DHT22;6040;49.358;11.140;2022-12-29T04:48:58;7.70;99.90
11961;DHT22;6040;49.358;11.140;2022-12-29T04:51:26;7.60;99.90
11961;DHT22;6040;49.358;11.140;2022-12-29T04:53:52;7.60;99.90
11961;DHT22;6040;49.358;11.140;2022-12-29T04:56:19;7.70;99.90
11961;DHT22;6040;49.358;11.140;2022-12-29T04:58:47;7.70;99.90
11961;DHT22;6040;49.358;11.140;2022-12-29T05:01:14;7.60;99.90
11961;DHT22;6040;49.358;11.140;2022-12-29T05:03:41;7.60;99.90
11961;DHT22;6040;49.358;11.140;2022-12-29T05:06:08;7.60;99.90
11961;DHT22;6040;49.358;11.140;2022-12-29T05:08:34;7.60;99.90
11961;DHT22;6040;49.358;11.140;2022-12-29T05:11:01;7.70;99.90
11961;DHT22;6040;49.358;11.140;2022-12-29T05:13:28;8.60;99.90
11961;DHT22;6040;49.358;11.140;2022-12-29T05:15:56;7.70;99.90
11961;DHT22;6040;49.358;11.140;2022-12-29T05:18:23;7.60;99.90
11961;DHT22;6040;49.358;11.140;2022-12-29T05:20:50;7.60;99.90
11961;DHT22;6040;49.358;11.140;2022-12-29T05:23:17;7.50;99.90
11961;DHT22;6040;49.358;11.140;2022-12-29T05:25:44;7.50;99.90
11961;DHT22;6040;49.358;11.140;2022-12-29T05:28:11;7.70;99.90
11961;DHT22;6040;49.358;11.140;2022-12-29T05:30:38;7.70;99.90
11961;DHT22;6040;49.358;11.140;2022-12-29T05:33:07;7.70;99.90
11961;DHT22;6040;49.358;11.140;2022-12-29T05:35:36;7.70;99.90
11961;DHT22;6040;49.358;11.140;2022-12-29T05:38:03;7.80;99.90
11961;DHT22;6040;49.358;11.140;2022-12-29T05:40:31;7.80;99.90
11961;DHT22;6040;49.358;11.140;2022-12-29T05:42:58;8.20;99.90
11961;DHT22;6040;49.358;11.140;2022-12-29T05:45:25;7.90;99.90
11961;DHT22;6040;49.358;11.140;2022-12-29T05:47:52;7.80;99.90
11961;DHT22;6040;49.358;11.140;2022-12-29T05:50:20;7.80;99.90
11961;DHT22;6040;49.358;11.140;2022-12-29T05:52:47;7.70;99.90
11961;DHT22;6040;49.358;11.140;2022-12-29T05:55:14;7.70;99.90
11961;DHT22;6040;49.358;11.140;2022-12-29T05:57:40;7.60;99.90
11961;DHT22;6040;49.358;11.140;2022-12-29T06:00:08;7.50;99.90
11961;DHT22;6040;49.358;11.140;2022-12-29T06:02:35;7.50;99.90
11961;DHT22;6040;49.358;11.140;2022-12-29T06:05:02;7.40;99.90
11961;DHT22;6040;49.358;11.140;2022-12-29T06:07:31;7.40;99.90
11961;DHT22;6040;49.358;11.140;2022-12-29T06:09:57;7.90;99.90
11961;DHT22;6040;49.358;11.140;2022-12-29T06:12:24;7.20;99.90
11961;DHT22;6040;49.358;11.140;2022-12-29T06:14:51;7.20;99.90
11961;DHT22;6040;49.358;11.140;2022-12-29T06:17:18;7.10;99.90
11961;DHT22;6040;49.358;11.140;2022-12-29T06:19:44;7.10;99.90
11961;DHT22;6040;49.358;11.140;2022-12-29T06:22:11;7.10;99.90
11961;DHT22;6040;49.358;11.140;2022-12-29T06:24:40;7.00;99.90
11961;DHT22;6040;49.358;11.140;2022-12-29T06:27:07;7.00;99.90
11961;DHT22;6040;49.358;11.140;2022-12-29T06:29:33;7.00;99.90
11961;DHT22;6040;49.358;11.140;2022-12-29T06:32:02;7.00;99.90
11961;DHT22;6040;49.358;11.140;2022-12-29T06:34:29;6.90;99.90
11961;DHT22;6040;49.358;11.140;2022-12-29T06:36:56;7.10;99.90
11961;DHT22;6040;49.358;11.140;2022-12-29T06:39:23;6.80;99.90
11961;DHT22;6040;49.358;11.140;2022-12-29T06:41:53;6.70;99.90
11961;DHT22;6040;49.358;11.140;2022-12-29T06:44:20;6.70;99.90
11961;DHT22;6040;49.358;11.140;2022-12-29T06:46:47;6.60;99.90
11961;DHT22;6040;49.358;11.140;2022-12-29T06:49:14;6.60;99.90
11961;DHT22;6040;49.358;11.140;2022-12-29T06:51:44;6.50;99.90
11961;DHT22;6040;49.358;11.140;2022-12-29T06:54:11;6.50;99.90
11961;DHT22;6040;49.358;11.140;2022-12-29T06:56:38;6.50;99.90
11961;DHT22;6040;49.358;11.140;2022-12-29T06:59:07;6.90;99.90
11961;DHT22;6040;49.358;11.140;2022-12-29T07:01:34;6.60;99.90
11961;DHT22;6040;49.358;11.140;2022-12-29T07:04:01;6.60;99.90
11961;DHT22;6040;49.358;11.140;2022-12-29T07:06:28;6.60;99.90
11961;DHT22;6040;49.358;11.140;2022-12-29T07:08:55;6.60;99.90
11961;DHT22;6040;49.358;11.140;2022-12-29T07:11:23;6.60;99.90
11961;DHT22;6040;49.358;11.140;2022-12-29T07:13:50;6.50;99.90
11961;DHT22;6040;49.358;11.140;2022-12-29T07:16:18;6.60;99.90
11961;DHT22;6040;49.358;11.140;2022-12-29T07:18:45;6.60;99.90
11961;DHT22;6040;49.358;11.140;2022-12-29T07:21:12;7.30;99.90
11961;DHT22;6040;49.358;11.140;2022-12-29T07:23:39;6.80;99.90
11961;DHT22;6040;49.358;11.140;2022-12-29T07:26:07;6.50;99.90
11961;DHT22;6040;49.358;11.140;2022-12-29T07:28:35;6.60;99.90
11961;DHT22;6040;49.358;11.140;2022-12-29T07:31:03;6.60;99.90
11961;DHT22;6040;49.358;11.140;2022-12-29T07:33:32;6.60;99.90
11961;DHT22;6040;49.358;11.140;2022-12-29T07:35:59;6.60;99.90
11961;DHT22;6040;49.358;11.140;2022-12-29T07:38:26;6.60;99.90
11961;DHT22;6040;49.358;11.140;2022-12-29T07:40:56;6.60;99.90
11961;DHT22;6040;49.358;11.140;2022-12-29T07:43:23;6.70;99.90
11961;DHT22;6040;49.358;11.140;2022-12-29T07:45:50;6.70;99.90
11961;DHT22;6040;49.358;11.140;2022-12-29T07:48:17;7.50;99.90
11961;DHT22;6040;49.358;11.140;2022-12-29T07:50:45;6.80;99.90
11961;DHT22;6040;49.358;11.140;2022-12-29T07:53:12;6.80;99.90
11961;DHT22;6040;49.358;11.140;2022-12-29T07:55:39;6.90;99.90
11961;DHT22;6040;49.358;11.140;2022-12-29T07:58:05;7.00;99.90
11961;DHT22;6040;49.358;11.140;2022-12-29T08:00:33;7.00;99.90
11961;DHT22;6040;49.358;11.140;2022-12-29T08:02:59;7.00;99.90
11961;DHT22;6040;49.358;11.140;2022-12-29T08:05:26;7.00;99.90
11961;DHT22;6040;49.358;11.140;2022-12-29T08:07:54;7.00;99.90
11961;DHT22;6040;49.358;11.140;2022-12-29T08:10:22;7.10;99.90
11961;DHT22;6040;49.358;11.140;2022-12-29T08:12:49;7.50;99.90
11961;DHT22;6040;49.358;11.140;2022-12-29T08:15:16;7.20;99.90
11961;DHT22;6040;49.358;11.140;2022-12-29T08:17:43;7.30;99.90
11961;DHT22;6040;49.358;11.140;2022-12-29T08:20:10;8.40;99.90
11961;DHT22;6040;49.358;11.140;2022-12-29T08:22:36;7.40;99.90
11961;DHT22;6040;49.358;11.140;2022-12-29T08:25:05;7.50;99.90
11961;DHT22;6040;49.358;11.140;2022-12-29T08:27:32;7.50;99.90
11961;DHT22;6040;49.358;11.140;2022-12-29T08:29:59;7.60;99.90
11961;DHT22;6040;49.358;11.140;2022-12-29T08:32:26;7.60;99.90
11961;DHT22;6040;49.358;11.140;2022-12-29T08:34:53;7.70;99.90
11961;DHT22;6040;49.358;11.140;2022-12-29T08:37:20;7.80;99.90
11961;DHT22;6040;49.358;11.140;2022-12-29T08:39:47;7.90;99.90
11961;DHT22;6040;49.358;11.140;2022-12-29T08:42:15;7.80;99.90
11961;DHT22;6040;49.358;11.140;2022-12-29T08:44:42;7.90;99.90
11961;DHT22;6040;49.358;11.140;2022-12-29T08:47:09;8.00;99.90
11961;DHT22;6040;49.358;11.140;2022-12-29T08:49:37;8.10;99.90
11961;DHT22;6040;49.358;11.140;2022-12-29T08:52:04;8.20;99.90
11961;DHT22;6040;49.358;11.140;2022-12-29T08:54:31;8.50;99.90
11961;DHT22;6040;49.358;11.140;2022-12-29T08:56:57;8.30;99.90
11961;DHT22;6040;49.358;11.140;2022-12-29T08:59:26;8.40;99.90
11961;DHT22;6040;49.358;11.140;2022-12-29T09:01:52;8.40;99.90
11961;DHT22;6040;49.358;11.140;2022-12-29T09:04:20;8.40;99.90
11961;DHT22;6040;49.358;11.140;2022-12-29T09:06:49;8.50;99.90
11961;DHT22;6040;49.358;11.140;2022-12-29T09:09:16;8.60;99.90
11961;DHT22;6040;49.358;11.140;2022-12-29T09:11:43;8.70;99.90
11961;DHT22;6040;49.358;11.140;2022-12-29T09:14:11;8.80;99.90
11961;DHT22;6040;49.358;11.140;2022-12-29T09:16:39;9.00;99.90
11961;DHT22;6040;49.358;11.140;2022-12-29T09:19:24;9.20;99.90
11961;DHT22;6040;49.358;11.140;2022-12-29T09:21:50;9.30;99.90
11961;DHT22;6040;49.358;11.140;2022-12-29T09:24:17;9.50;99.90
11961;DHT22;6040;49.358;11.140;2022-12-29T09:26:44;9.40;99.90
11961;DHT22;6040;49.358;11.140;2022-12-29T09:29:11;9.40;99.90
11961;DHT22;6040;49.358;11.140;2022-12-29T09:34:06;9.30;99.90
11961;DHT22;6040;49.358;11.140;2022-12-29T09:36:33;9.30;99.90
11961;DHT22;6040;49.358;11.140;2022-12-29T09:38:59;9.40;99.90
11961;DHT22;6040;49.358;11.140;2022-12-29T09:41:31;9.50;99.90
11961;DHT22;6040;49.358;11.140;2022-12-29T09:44:06;9.70;99.90
11961;DHT22;6040;49.358;11.140;2022-12-29T09:46:42;10.00;99.90
11961;DHT22;6040;49.358;11.140;2022-12-29T09:49:19;9.90;99.90
11961;DHT22;6040;49.358;11.140;2022-12-29T09:51:50;9.80;99.90
11961;DHT22;6040;49.358;11.140;2022-12-29T09:54:28;10.30;99.90
11961;DHT22;6040;49.358;11.140;2022-12-29T09:56:58;9.90;99.90
11961;DHT22;6040;49.358;11.140;2022-12-29T09:59:36;9.80;99.90
11961;DHT22;6040;49.358;11.140;2022-12-29T10:02:16;10.00;99.90
11961;DHT22;6040;49.358;11.140;2022-12-29T10:04:47;9.90;99.90
11961;DHT22;6040;49.358;11.140;2022-12-29T10:07:19;9.90;99.90
11961;DHT22;6040;49.358;11.140;2022-12-29T10:09:51;10.00;99.90
11961;DHT22;6040;49.358;11.140;2022-12-29T10:12:30;10.00;99.90
11961;DHT22;6040;49.358;11.140;2022-12-29T10:15:04;10.00;99.90
11961;DHT22;6040;49.358;11.140;2022-12-29T10:17:42;10.00;99.90
11961;DHT22;6040;49.358;11.140;2022-12-29T10:20:20;10.10;99.90
11961;DHT22;6040;49.358;11.140;2022-12-29T10:23:01;9.80;99.90
11961;DHT22;6040;49.358;11.140;2022-12-29T10:25:34;10.30;99.90
11961;DHT22;6040;49.358;11.140;2022-12-29T10:28:09;10.30;99.90
11961;DHT22;6040;49.358;11.140;2022-12-29T10:30:37;10.30;99.90
11961;DHT22;6040;49.358;11.140;2022-12-29T10:33:10;11.50;99.90
11961;DHT22;6040;49.358;11.140;2022-12-29T10:35:40;10.30;99.90
11961;DHT22;6040;49.358;11.140;2022-12-29T10:38:15;10.30;99.90
11961;DHT22;6040;49.358;11.140;2022-12-29T10:40:49;10.40;99.90
11961;DHT22;6040;49.358;11.140;2022-12-29T10:43:24;10.50;99.90
11961;DHT22;6040;49.358;11.140;2022-12-29T10:45:53;10.50;99.90
11961;DHT22;6040;49.358;11.140;2022-12-29T10:48:24;10.70;99.90
11961;DHT22;6040;49.358;11.140;2022-12-29T10:50:53;10.60;99.90
11961;DHT22;6040;49.358;11.140;2022-12-29T10:53:25;10.60;99.90
11961;DHT22;6040;49.358;11.140;2022-12-29T10:55:55;10.70;99.90
11961;DHT22;6040;49.358;11.140;2022-12-29T10:58:23;10.60;99.90
11961;DHT22;6040;49.358;11.140;2022-12-29T11:00:53;10.60;99.90
11961;DHT22;6040;49.358;11.140;2022-12-29T11:06:23;10.70;99.90
11961;DHT22;6040;49.358;11.140;2022-12-29T11:08:54;10.60;99.90
11961;DHT22;6040;49.358;11.140;2022-12-29T11:11:25;10.60;99.90
11961;DHT22;6040;49.358;11.140;2022-12-29T11:13:57;10.50;99.90
11961;DHT22;6040;49.358;11.140;2022-12-29T11:16:29;10.60;99.90
11961;DHT22;6040;49.358;11.140;2022-12-29T11:18:57;10.50;99.90
11961;DHT22;6040;49.358;11.140;2022-12-29T11:21:30;10.60;99.90
11961;DHT22;6040;49.358;11.140;2022-12-29T11:23:59;11.50;99.90
11961;DHT22;6040;49.358;11.140;2022-12-29T11:26:26;10.70;99.90
11961;DHT22;6040;49.358;11.140;2022-12-29T11:31:40;10.90;99.90
11961;DHT22;6040;49.358;11.140;2022-12-29T11:34:07;11.00;99.90
11961;DHT22;6040;49.358;11.140;2022-12-29T11:36:36;11.10;99.90
11961;DHT22;6040;49.358;11.140;2022-12-29T11:39:04;11.20;99.90
11961;DHT22;6040;49.358;11.140;2022-12-29T11:41:31;11.20;99.90
11961;DHT22;6040;49.358;11.140;2022-12-29T11:44:00;11.20;99.90
11961;DHT22;6040;49.358;11.140;2022-12-29T11:46:30;11.20;99.90
11961;DHT22;6040;49.358;11.140;2022-12-29T11:48:58;11.20;99.90
11961;DHT22;6040;49.358;11.140;2022-12-29T11:51:28;11.30;99.90
11961;DHT22;6040;49.358;11.140;2022-12-29T11:53:59;11.40;99.90
11961;DHT22;6040;49.358;11.140;2022-12-29T11:56:36;11.40;99.90
11961;DHT22;6040;49.358;11.140;2022-12-29T11:59:36;11.50;99.90
11961;DHT22;6040;49.358;11.140;2022-12-29T12:02:17;11.50;99.90
11961;DHT22;6040;49.358;11.140;2022-12-29T12:04:49;11.60;99.90
11961;DHT22;6040;49.358;11.140;2022-12-29T12:07:20;11.60;99.90
11961;DHT22;6040;49.358;11.140;2022-12-29T12:09:53;11.70;99.90
11961;DHT22;6040;49.358;11.140;2022-12-29T12:12:25;11.90;99.90
11961;DHT22;6040;49.358;11.140;2022-12-29T12:14:56;11.90;99.90
11961;DHT22;6040;49.358;11.140;2022-12-29T12:17:29;12.00;99.90
11961;DHT22;6040;49.358;11.140;2022-12-29T12:20:09;12.90;99.90
11961;DHT22;6040;49.358;11.140;2022-12-29T12:22:38;12.00;99.90
11961;DHT22;6040;49.358;11.140;2022-12-29T12:25:13;11.90;99.90
11961;DHT22;6040;49.358;11.140;2022-12-29T12:27:50;12.00;99.90
11961;DHT22;6040;49.358;11.140;2022-12-29T12:32:50;12.10;99.90
11961;DHT22;6040;49.358;11.140;2022-12-29T12:35:28;12.10;99.90
11961;DHT22;6040;49.358;11.140;2022-12-29T12:38:12;12.00;99.90
11961;DHT22;6040;49.358;11.140;2022-12-29T12:40:58;12.10;99.90
11961;DHT22;6040;49.358;11.140;2022-12-29T12:43:37;13.00;99.90
11961;DHT22;6040;49.358;11.140;2022-12-29T12:49:16;12.20;99.90
11961;DHT22;6040;49.358;11.140;2022-12-29T12:51:53;12.10;99.90
11961;DHT22;6040;49.358;11.140;2022-12-29T12:54:34;12.00;99.90
11961;DHT22;6040;49.358;11.140;2022-12-29T12:57:12;11.90;99.90
11961;DHT22;6040;49.358;11.140;2022-12-29T12:59:52;12.00;99.90
11961;DHT22;6040;49.358;11.140;2022-12-29T13:02:34;11.90;99.90
11961;DHT22;6040;49.358;11.140;2022-12-29T13:05:29;12.80;99.90
11961;DHT22;6040;49.358;11.140;2022-12-29T13:08:17;11.90;99.90
11961;DHT22;6040;49.358;11.140;2022-12-29T13:10:52;11.80;99.90
11961;DHT22;6040;49.358;11.140;2022-12-29T13:13:38;12.90;99.90
11961;DHT22;6040;49.358;11.140;2022-12-29T13:16:13;11.80;99.90
11961;DHT22;6040;49.358;11.140;2022-12-29T13:18:52;11.90;99.90
11961;DHT22;6040;49.358;11.140;2022-12-29T13:21:33;11.80;99.90
11961;DHT22;6040;49.358;11.140;2022-12-29T13:24:06;11.70;99.90
11961;DHT22;6040;49.358;11.140;2022-12-29T13:26:50;11.70;99.90
11961;DHT22;6040;49.358;11.140;2022-12-29T13:29:23;11.80;99.90
11961;DHT22;6040;49.358;11.140;2022-12-29T13:32:02;11.70;99.90
11961;DHT22;6040;49.358;11.140;2022-12-29T13:37:07;11.60;99.90
11961;DHT22;6040;49.358;11.140;2022-12-29T13:39:39;11.60;99.90
11961;DHT22;6040;49.358;11.140;2022-12-29T13:42:07;11.60;99.90
11961;DHT22;6040;49.358;11.140;2022-12-29T13:44:40;11.60;99.90
11961;DHT22;6040;49.358;11.140;2022-12-29T13:47:16;11.60;99.90
11961;DHT22;6040;49.358;11.140;2022-12-29T13:49:45;11.60;99.90
11961;DHT22;6040;49.358;11.140;2022-12-29T13:52:20;11.60;99.90
11961;DHT22;6040;49.358;11.140;2022-12-29T13:54:55;11.60;99.90
11961;DHT22;6040;49.358;11.140;2022-12-29T13:57:35;11.60;99.90
11961;DHT22;6040;49.358;11.140;2022-12-29T14:00:12;11.70;99.90
11961;DHT22;6040;49.358;11.140;2022-12-29T14:02:53;11.60;99.90
11961;DHT22;6040;49.358;11.140;2022-12-29T14:05:28;11.50;99.90
11961;DHT22;6040;49.358;11.140;2022-12-29T14:08:00;11.50;99.90
11961;DHT22;6040;49.358;11.140;2022-12-29T14:10:29;11.40;99.90
11961;DHT22;6040;49.358;11.140;2022-12-29T14:13:04;11.30;99.90
11961;DHT22;6040;49.358;11.140;2022-12-29T14:15:38;11.20;99.90
11961;DHT22;6040;49.358;11.140;2022-12-29T14:18:15;12.20;99.90
11961;DHT22;6040;49.358;11.140;2022-12-29T14:20:53;11.10;99.90
11961;DHT22;6040;49.358;11.140;2022-12-29T14:23:34;11.00;99.90
11961;DHT22;6040;49.358;11.140;2022-12-29T14:26:14;11.20;99.90
11961;DHT22;6040;49.358;11.140;2022-12-29T14:28:42;11.00;99.90
11961;DHT22;6040;49.358;11.140;2022-12-29T14:31:34;10.90;99.90
11961;DHT22;6040;49.358;11.140;2022-12-29T14:34:30;10.90;99.90
11961;DHT22;6040;49.358;11.140;2022-12-29T14:36:58;10.80;99.90
11961;DHT22;6040;49.358;11.140;2022-12-29T14:39:37;10.90;99.90
11961;DHT22;6040;49.358;11.140;2022-12-29T14:42:06;10.80;99.90
11961;DHT22;6040;49.358;11.140;2022-12-29T14:44:33;10.70;99.90
11961;DHT22;6040;49.358;11.140;2022-12-29T14:47:05;11.80;99.90
11961;DHT22;6040;49.358;11.140;2022-12-29T14:49:40;10.70;99.90
11961;DHT22;6040;49.358;11.140;2022-12-29T14:52:15;10.60;99.90
11961;DHT22;6040;49.358;11.140;2022-12-29T14:54:48;10.60;99.90
11961;DHT22;6040;49.358;11.140;2022-12-29T14:57:22;10.60;99.90
11961;DHT22;6040;49.358;11.140;2022-12-29T14:59:53;10.60;99.90
11961;DHT22;6040;49.358;11.140;2022-12-29T15:02:24;10.60;99.90
11961;DHT22;6040;49.358;11.140;2022-12-29T15:04:54;10.60;99.90
11961;DHT22;6040;49.358;11.140;2022-12-29T15:07:21;10.60;99.90
11961;DHT22;6040;49.358;11.140;2022-12-29T15:09:54;10.60;99.90
11961;DHT22;6040;49.358;11.140;2022-12-29T15:12:32;10.50;99.90
11961;DHT22;6040;49.358;11.140;2022-12-29T15:15:17;10.50;99.90
11961;DHT22;6040;49.358;11.140;2022-12-29T15:17:46;10.50;99.90
11961;DHT22;6040;49.358;11.140;2022-12-29T15:20:23;10.50;99.90
11961;DHT22;6040;49.358;11.140;2022-12-29T15:22:55;10.40;99.90
11961;DHT22;6040;49.358;11.140;2022-12-29T15:25:23;10.90;99.90
11961;DHT22;6040;49.358;11.140;2022-12-29T15:27:55;10.40;99.90
11961;DHT22;6040;49.358;11.140;2022-12-29T15:30:23;10.40;99.90
11961;DHT22;6040;49.358;11.140;2022-12-29T15:32:51;10.40;99.90
11961;DHT22;6040;49.358;11.140;2022-12-29T15:35:25;10.30;99.90
11961;DHT22;6040;49.358;11.140;2022-12-29T15:37:52;10.40;99.90
11961;DHT22;6040;49.358;11.140;2022-12-29T15:40:28;10.40;99.90
11961;DHT22;6040;49.358;11.140;2022-12-29T15:43:14;10.30;99.90
11961;DHT22;6040;49.358;11.140;2022-12-29T15:45:43;10.40;99.90
11961;DHT22;6040;49.358;11.140;2022-12-29T15:48:16;10.40;99.90
11961;DHT22;6040;49.358;11.140;2022-12-29T15:50:44;11.70;99.90
11961;DHT22;6040;49.358;11.140;2022-12-29T15:53:16;10.30;99.90
11961;DHT22;6040;49.358;11.140;2022-12-29T15:55:45;10.30;99.90
11961;DHT22;6040;49.358;11.140;2022-12-29T15:58:21;10.30;99.90
11961;DHT22;6040;49.358;11.140;2022-12-29T16:00:50;10.70;99.90
11961;DHT22;6040;49.358;11.140;2022-12-29T16:03:20;10.20;99.90
11961;DHT22;6040;49.358;11.140;2022-12-29T16:05:53;10.20;99.90
11961;DHT22;6040;49.358;11.140;2022-12-29T16:08:38;10.20;99.90
11961;DHT22;6040;49.358;11.140;2022-12-29T16:11:19;10.20;99.90
11961;DHT22;6040;49.358;11.140;2022-12-29T16:13:48;10.20;99.90
11961;DHT22;6040;49.358;11.140;2022-12-29T16:16:18;10.20;99.90
11961;DHT22;6040;49.358;11.140;2022-12-29T16:18:47;10.20;99.90
11961;DHT22;6040;49.358;11.140;2022-12-29T16:21:18;10.10;99.90
11961;DHT22;6040;49.358;11.140;2022-12-29T16:23:49;10.10;99.90
11961;DHT22;6040;49.358;11.140;2022-12-29T16:26:18;10.10;99.90
11961;DHT22;6040;49.358;11.140;2022-12-29T16:28:48;10.10;99.90
11961;DHT22;6040;49.358;11.140;2022-12-29T16:31:20;10.10;99.90